Time;durP1;ratioP1;P1;durP2;ratioP2;P2;SDS_P1;SDS_P2;PMS_P1;PMS_P2;Temp;Humidity;BMP_temperature;BMP_pressure;BME280_temperature;BME280_humidity;BME280_pressure;Samples;Min_cycle;Max_cycle;Signal;HPM_P1;HPM_P2
2022/09/09 00:02:15;;;;;;;13.85;6.10;;;16.70;99.90;;;;;;5030696;28;20026;-76
2022/09/09 00:04:41;;;;;;;10.80;6.07;;;16.70;99.90;;;;;;5030929;28;20043;-76
2022/09/09 00:07:34;;;;;;;11.80;6.65;;;16.70;99.90;;;;;;5030804;28;20032;-77
2022/09/09 00:10:06;;;;;;;14.65;6.90;;;16.70;99.90;;;;;;5030650;28;20033;-76
2022/09/09 00:12:52;;;;;;;13.27;6.82;;;16.70;99.90;;;;;;5029528;28;20040;-76
2022/09/09 00:15:20;;;;;;;12.15;7.18;;;16.70;99.90;;;;;;5030647;28;20117;-76
2022/09/09 00:18:11;;;;;;;12.13;6.82;;;16.60;99.90;;;;;;5030212;28;20014;-76
2022/09/09 00:21:03;;;;;;;17.35;6.65;;;16.70;99.90;;;;;;5030863;28;20016;-76
2022/09/09 00:23:32;;;;;;;14.63;6.93;;;16.70;99.90;;;;;;5019633;28;20040;-76
2022/09/09 00:26:29;;;;;;;10.95;6.55;;;16.70;99.90;;;;;;5030089;28;20022;-76
2022/09/09 00:29:02;;;;;;;15.05;6.75;;;16.70;99.90;;;;;;5030510;28;20029;-76
2022/09/09 00:31:30;;;;;;;12.93;7.22;;;16.70;99.90;;;;;;5016898;28;20171;-76
2022/09/09 00:34:09;;;;;;;18.33;7.78;;;16.60;99.90;;;;;;5030664;28;20036;-76
2022/09/09 00:36:36;;;;;;;13.63;6.85;;;16.60;99.90;;;;;;5017126;28;20118;-76
2022/09/09 00:39:03;;;;;;;15.60;7.65;;;16.60;99.90;;;;;;5029600;28;20466;-76
2022/09/09 00:41:34;;;;;;;13.10;7.55;;;16.60;99.90;;;;;;5030233;28;20022;-76
2022/09/09 00:44:01;;;;;;;14.70;8.70;;;16.60;99.90;;;;;;5030058;28;20497;-76
2022/09/09 00:46:48;;;;;;;14.05;8.00;;;16.60;99.90;;;;;;5030067;28;20040;-77
2022/09/09 00:49:32;;;;;;;14.13;7.68;;;16.60;99.90;;;;;;5030569;28;20502;-76
2022/09/09 00:52:25;;;;;;;16.05;8.63;;;16.60;99.90;;;;;;5030112;28;20036;-76
2022/09/09 00:55:05;;;;;;;17.10;8.82;;;16.60;99.90;;;;;;5030039;28;20382;-76
2022/09/09 00:57:33;;;;;;;17.48;9.20;;;16.50;99.90;;;;;;5029975;28;20028;-76
2022/09/09 01:00:35;;;;;;;13.38;9.13;;;16.50;99.90;;;;;;5030416;28;20021;-77
2022/09/09 01:03:24;;;;;;;15.70;9.85;;;16.50;99.90;;;;;;5029859;28;20044;-76
2022/09/09 01:06:08;;;;;;;15.35;9.18;;;16.40;99.90;;;;;;5029853;28;20458;-77
2022/09/09 01:08:36;;;;;;;18.05;9.45;;;16.40;99.90;;;;;;5029796;28;20021;-76
2022/09/09 01:11:02;;;;;;;17.95;9.43;;;16.40;99.90;;;;;;5027836;28;20026;-77
2022/09/09 01:13:30;;;;;;;18.80;9.35;;;16.40;99.90;;;;;;5029917;28;20040;-77
2022/09/09 01:15:59;;;;;;;17.83;8.82;;;16.40;99.90;;;;;;5028972;28;20148;-76
2022/09/09 01:18:31;;;;;;;17.48;8.98;;;16.40;99.90;;;;;;5029791;28;20482;-77
2022/09/09 01:21:03;;;;;;;15.82;8.32;;;16.40;99.90;;;;;;5029482;28;20508;-76
2022/09/09 01:23:48;;;;;;;17.17;8.23;;;16.40;99.90;;;;;;5030299;28;20063;-76
2022/09/09 01:26:46;;;;;;;11.27;6.60;;;16.40;99.90;;;;;;5029277;28;20029;-76
2022/09/09 01:29:17;;;;;;;15.63;6.90;;;16.40;99.90;;;;;;5028136;28;20064;-76
2022/09/09 01:32:02;;;;;;;15.05;6.13;;;16.40;99.90;;;;;;5029621;28;20025;-76
2022/09/09 01:34:38;;;;;;;10.70;5.05;;;16.40;99.90;;;;;;5029170;28;20056;-76
2022/09/09 01:37:10;;;;;;;13.23;4.03;;;16.40;99.90;;;;;;5029565;28;20112;-77
2022/09/09 01:39:39;;;;;;;14.77;4.15;;;16.40;99.90;;;;;;5029143;28;20072;-76
2022/09/09 01:42:11;;;;;;;9.55;3.60;;;16.40;99.90;;;;;;5029883;28;20116;-76
2022/09/09 01:44:37;;;;;;;11.63;3.58;;;16.30;99.90;;;;;;5029056;28;20052;-76
2022/09/09 01:47:04;;;;;;;8.82;3.40;;;16.30;99.90;;;;;;5030035;28;20045;-76
2022/09/09 01:49:32;;;;;;;8.68;3.30;;;16.30;99.90;;;;;;5029098;28;20064;-76
2022/09/09 01:51:58;;;;;;;8.82;3.00;;;16.30;99.90;;;;;;5033256;28;20026;-76
2022/09/09 01:54:28;;;;;;;8.45;2.78;;;16.30;99.90;;;;;;5033194;28;20044;-76
2022/09/09 01:57:21;;;;;;;6.97;2.78;;;16.30;99.90;;;;;;5032981;28;20060;-76
2022/09/09 02:00:08;;;;;;;9.68;2.30;;;16.30;99.90;;;;;;5033465;28;20557;-76
2022/09/09 02:02:55;;;;;;;7.40;2.58;;;16.30;99.90;;;;;;5032997;28;20055;-76
2022/09/09 02:05:30;;;;;;;9.18;2.38;;;16.30;99.90;;;;;;5032872;28;20071;-76
2022/09/09 02:08:05;;;;;;;8.65;2.50;;;16.30;99.90;;;;;;5020038;28;20365;-76
2022/09/09 02:10:33;;;;;;;8.90;3.35;;;16.30;99.90;;;;;;5032837;28;20046;-77
2022/09/09 02:13:07;;;;;;;9.40;3.47;;;16.30;99.90;;;;;;5017919;28;20022;-76
2022/09/09 02:15:40;;;;;;;11.90;3.42;;;16.30;99.90;;;;;;5032877;28;20501;-76
2022/09/09 02:18:08;;;;;;;8.55;3.50;;;16.30;99.90;;;;;;5033007;28;20227;-76
2022/09/09 02:20:37;;;;;;;7.65;3.28;;;16.30;99.90;;;;;;5032533;28;20536;-76
2022/09/09 02:23:05;;;;;;;9.32;3.55;;;16.30;99.90;;;;;;5018662;28;20108;-77
2022/09/09 02:25:33;;;;;;;7.40;3.22;;;16.30;99.90;;;;;;5032429;28;20079;-76
2022/09/09 02:27:59;;;;;;;9.52;3.30;;;16.30;99.90;;;;;;5032657;28;20301;-76
2022/09/09 02:30:25;;;;;;;7.05;3.00;;;16.30;99.90;;;;;;5032455;28;20030;-76
2022/09/09 02:32:56;;;;;;;9.18;2.80;;;16.30;99.90;;;;;;5032296;28;20480;-76
2022/09/09 02:35:24;;;;;;;8.73;2.70;;;16.30;99.90;;;;;;5030986;28;20040;-76
2022/09/09 02:37:53;;;;;;;8.05;2.88;;;16.30;99.90;;;;;;5032753;28;20439;-77
2022/09/09 02:40:19;;;;;;;9.75;2.85;;;16.20;99.90;;;;;;5032381;28;20028;-76
2022/09/09 02:42:46;;;;;;;6.93;2.60;;;16.20;99.90;;;;;;5032320;28;20026;-76
2022/09/09 02:45:16;;;;;;;8.73;2.92;;;16.20;99.90;;;;;;5032394;28;20061;-76
2022/09/09 02:47:47;;;;;;;10.38;3.20;;;16.20;99.90;;;;;;5031757;28;20086;-76
2022/09/09 02:50:15;;;;;;;10.48;3.10;;;16.20;99.90;;;;;;5018636;28;20071;-76
2022/09/09 02:52:59;;;;;;;6.38;3.03;;;16.20;99.90;;;;;;5030282;28;20032;-76
2022/09/09 02:55:37;;;;;;;9.35;3.40;;;16.20;99.90;;;;;;5030136;28;20351;-76
2022/09/09 02:58:07;;;;;;;11.25;3.78;;;16.20;99.90;;;;;;5031714;28;20044;-77
2022/09/09 03:00:35;;;;;;;11.98;3.80;;;16.10;99.90;;;;;;5034320;28;20478;-76
2022/09/09 03:03:02;;;;;;;8.93;3.45;;;16.10;99.90;;;;;;5031533;28;20064;-76
2022/09/09 03:05:28;;;;;;;9.52;3.92;;;16.10;99.90;;;;;;5031912;28;20029;-76
2022/09/09 03:07:53;;;;;;;9.15;3.60;;;16.10;99.90;;;;;;5031715;28;20024;-76
2022/09/09 03:10:19;;;;;;;11.18;4.05;;;16.10;99.90;;;;;;5031845;28;20501;-76
2022/09/09 03:12:44;;;;;;;9.40;3.65;;;16.10;99.90;;;;;;5031459;28;20072;-76
2022/09/09 03:15:10;;;;;;;11.55;3.45;;;16.10;99.90;;;;;;5031698;28;20108;-76
2022/09/09 03:17:37;;;;;;;9.10;3.42;;;16.10;99.90;;;;;;5031562;28;20477;-76
2022/09/09 03:20:03;;;;;;;7.82;3.40;;;16.00;99.90;;;;;;5031783;28;21464;-76
2022/09/09 03:22:29;;;;;;;7.50;3.70;;;16.00;99.90;;;;;;5031780;28;20425;-76
2022/09/09 03:24:55;;;;;;;8.32;3.67;;;16.00;99.90;;;;;;5031631;28;20022;-76
2022/09/09 03:27:20;;;;;;;12.15;3.38;;;16.00;99.90;;;;;;5031232;28;20021;-77
2022/09/09 03:29:46;;;;;;;9.73;3.40;;;16.00;99.90;;;;;;5044965;28;20025;-76
2022/09/09 03:32:12;;;;;;;10.73;3.20;;;16.00;99.90;;;;;;5037537;28;20039;-76
2022/09/09 03:34:40;;;;;;;12.73;3.20;;;16.00;99.90;;;;;;5038958;28;20117;-76
2022/09/09 03:37:05;;;;;;;10.65;2.90;;;16.00;99.90;;;;;;5030779;28;20417;-76
2022/09/09 03:39:31;;;;;;;7.28;2.92;;;16.00;99.90;;;;;;5031124;28;20025;-77
2022/09/09 03:41:57;;;;;;;12.48;3.00;;;16.00;99.90;;;;;;5045075;28;20457;-76
2022/09/09 03:44:22;;;;;;;7.40;2.72;;;16.00;99.90;;;;;;5030961;28;20018;-76
2022/09/09 03:46:48;;;;;;;5.85;2.80;;;16.00;99.90;;;;;;5030910;28;20124;-77
2022/09/09 03:49:15;;;;;;;11.93;3.05;;;16.00;99.90;;;;;;5031022;28;20045;-76
2022/09/09 03:51:41;;;;;;;10.65;2.83;;;16.00;99.90;;;;;;5030720;28;20080;-76
2022/09/09 03:54:09;;;;;;;8.25;2.40;;;15.90;99.90;;;;;;5030639;28;20383;-76
2022/09/09 03:56:35;;;;;;;8.55;2.72;;;16.00;99.90;;;;;;5030950;28;20537;-76
2022/09/09 03:59:01;;;;;;;7.80;2.78;;;15.90;99.90;;;;;;5030790;28;20096;-76
2022/09/09 04:01:27;;;;;;;8.50;2.50;;;15.90;99.90;;;;;;5031224;28;20052;-76
2022/09/09 04:03:53;;;;;;;9.38;2.60;;;15.90;99.90;;;;;;5030851;28;20087;-76
2022/09/09 04:06:20;;;;;;;7.20;2.25;;;15.90;99.90;;;;;;5044180;28;20025;-76
2022/09/09 04:08:48;;;;;;;9.88;2.47;;;15.90;99.90;;;;;;5030439;28;20018;-76
2022/09/09 04:11:15;;;;;;;9.95;2.65;;;15.90;99.90;;;;;;5027807;28;20121;-76
2022/09/09 04:13:41;;;;;;;8.35;2.20;;;15.90;99.90;;;;;;5018942;28;20036;-76
2022/09/09 04:16:10;;;;;;;6.25;2.30;;;15.90;99.90;;;;;;5030610;28;20075;-76
2022/09/09 04:18:35;;;;;;;7.45;2.70;;;15.90;99.90;;;;;;5030477;28;20018;-76
2022/09/09 04:21:01;;;;;;;12.23;3.10;;;15.90;99.90;;;;;;5030681;28;20037;-76
2022/09/09 04:23:30;;;;;;;11.32;3.03;;;15.90;99.90;;;;;;5029868;28;20013;-76
2022/09/09 04:25:58;;;;;;;11.20;3.10;;;15.90;99.90;;;;;;5030506;28;20659;-76
2022/09/09 04:28:26;;;;;;;10.18;3.03;;;15.90;99.90;;;;;;5030160;28;20024;-76
2022/09/09 04:30:52;;;;;;;10.85;3.03;;;15.90;99.90;;;;;;5030149;28;20111;-76
2022/09/09 04:33:18;;;;;;;12.70;3.28;;;15.90;99.90;;;;;;5029994;28;20060;-76
2022/09/09 04:35:46;;;;;;;10.68;3.85;;;15.90;99.90;;;;;;5030162;28;20493;-77
2022/09/09 04:38:13;;;;;;;13.55;4.28;;;15.90;99.90;;;;;;5029626;28;20026;-77
2022/09/09 04:40:42;;;;;;;12.57;3.53;;;15.80;99.90;;;;;;5030309;28;20021;-77
2022/09/09 04:43:08;;;;;;;10.05;3.88;;;15.80;99.90;;;;;;5030124;28;20143;-77
2022/09/09 04:45:34;;;;;;;10.18;3.83;;;15.90;99.90;;;;;;5029431;28;20032;-76
2022/09/09 04:48:00;;;;;;;14.48;4.07;;;15.80;99.90;;;;;;5030013;28;20021;-77
2022/09/09 04:50:26;;;;;;;10.63;3.50;;;15.80;99.90;;;;;;5029464;28;20040;-77
2022/09/09 04:52:52;;;;;;;15.07;3.60;;;15.80;99.90;;;;;;5019845;28;20471;-77
2022/09/09 04:55:17;;;;;;;12.80;3.53;;;15.80;99.90;;;;;;5024766;28;20025;-77
2022/09/09 04:57:43;;;;;;;11.40;3.33;;;15.80;99.90;;;;;;5030244;28;20087;-77
2022/09/09 05:00:10;;;;;;;9.15;3.35;;;15.80;99.90;;;;;;5039366;28;20044;-77
2022/09/09 05:02:39;;;;;;;12.02;3.95;;;15.80;99.90;;;;;;5042834;28;20071;-77
2022/09/09 05:05:05;;;;;;;10.32;3.55;;;15.80;99.90;;;;;;5048289;28;20071;-77
2022/09/09 05:07:31;;;;;;;14.88;3.88;;;15.80;99.90;;;;;;5044488;28;20013;-77
2022/09/09 05:09:57;;;;;;;13.52;3.80;;;15.80;99.90;;;;;;5036636;28;20104;-77
2022/09/09 05:12:25;;;;;;;13.27;4.00;;;15.80;99.90;;;;;;5045637;28;20061;-77
2022/09/09 05:14:51;;;;;;;18.58;4.10;;;15.80;99.90;;;;;;5043975;28;20071;-77
2022/09/09 05:17:17;;;;;;;11.57;3.95;;;15.70;99.90;;;;;;5046509;28;20053;-77
2022/09/09 05:19:43;;;;;;;9.63;3.58;;;15.80;99.90;;;;;;5044926;28;20053;-77
2022/09/09 05:22:10;;;;;;;12.23;4.00;;;15.80;99.90;;;;;;5047563;28;20012;-77
2022/09/09 05:24:36;;;;;;;9.98;3.90;;;15.70;99.90;;;;;;5046647;28;20921;-77
2022/09/09 05:27:02;;;;;;;15.68;4.10;;;15.70;99.90;;;;;;5041118;28;20470;-77
2022/09/09 05:29:28;;;;;;;12.52;4.32;;;15.70;99.90;;;;;;5040036;28;20064;-74
2022/09/09 05:31:54;;;;;;;16.77;4.38;;;15.80;99.90;;;;;;5044806;28;20269;-77
2022/09/09 05:34:20;;;;;;;13.93;4.10;;;15.80;99.90;;;;;;5050723;28;20025;-76
2022/09/09 05:36:46;;;;;;;13.70;3.88;;;15.80;99.90;;;;;;5049211;28;20045;-76
2022/09/09 05:39:12;;;;;;;17.63;4.20;;;15.80;99.90;;;;;;5050357;28;20013;-76
2022/09/09 05:41:38;;;;;;;12.23;3.67;;;15.80;99.90;;;;;;5049771;28;20028;-76
2022/09/09 05:44:03;;;;;;;10.43;3.65;;;15.90;99.90;;;;;;5041016;28;20024;-75
2022/09/09 05:46:30;;;;;;;10.48;3.67;;;15.90;99.90;;;;;;5046638;28;20055;-76
2022/09/09 05:48:55;;;;;;;14.93;4.50;;;15.90;99.90;;;;;;5042475;28;20033;-76
2022/09/09 05:51:29;;;;;;;11.25;3.42;;;16.00;99.90;;;;;;5034622;28;20484;-77
2022/09/09 05:53:58;;;;;;;16.63;4.00;;;16.00;99.90;;;;;;5042069;28;20021;-77
2022/09/09 05:56:26;;;;;;;9.95;3.30;;;16.00;99.90;;;;;;5043819;28;20046;-76
2022/09/09 05:58:53;;;;;;;14.18;3.60;;;16.10;99.90;;;;;;5047746;28;20060;-76
2022/09/09 06:01:24;;;;;;;12.00;3.50;;;16.10;99.90;;;;;;5048065;28;20075;-76
2022/09/09 06:03:51;;;;;;;14.18;3.30;;;16.10;99.90;;;;;;5046321;28;20044;-76
2022/09/09 06:06:25;;;;;;;16.20;3.60;;;16.10;99.90;;;;;;5048995;28;20465;-76
2022/09/09 06:08:53;;;;;;;13.75;3.30;;;16.10;99.90;;;;;;5047510;28;20017;-76
2022/09/09 06:11:23;;;;;;;13.02;3.63;;;16.10;99.90;;;;;;5045127;28;20033;-75
2022/09/09 06:13:53;;;;;;;16.83;3.40;;;16.20;99.90;;;;;;5049105;28;20484;-75
2022/09/09 06:16:20;;;;;;;13.02;3.78;;;16.20;99.90;;;;;;5049631;28;20073;-76
2022/09/09 06:18:47;;;;;;;15.25;3.72;;;16.20;99.90;;;;;;5048997;28;20101;-76
2022/09/09 06:21:18;;;;;;;9.57;3.20;;;16.30;99.90;;;;;;5047724;28;20485;-76
2022/09/09 06:23:44;;;;;;;15.63;3.63;;;16.30;99.90;;;;;;5048297;28;20074;-74
2022/09/09 06:26:17;;;;;;;11.63;3.28;;;16.30;99.90;;;;;;5049419;28;20488;-74
2022/09/09 06:28:45;;;;;;;15.13;3.25;;;16.30;99.90;;;;;;5048224;28;20496;-74
2022/09/09 06:31:12;;;;;;;14.93;3.67;;;16.40;99.90;;;;;;5039189;28;20056;-74
2022/09/09 06:33:40;;;;;;;12.57;3.72;;;16.40;99.90;;;;;;5040761;28;20038;-74
2022/09/09 06:36:17;;;;;;;14.98;3.80;;;16.40;99.90;;;;;;5040983;28;20025;-75
2022/09/09 06:38:44;;;;;;;14.65;3.85;;;16.40;99.90;;;;;;5037916;28;20025;-74
2022/09/09 06:41:12;;;;;;;13.35;4.15;;;16.40;99.90;;;;;;5033225;28;20033;-76
2022/09/09 06:43:38;;;;;;;14.30;3.70;;;16.50;99.90;;;;;;5036764;28;20064;-76
2022/09/09 06:46:18;;;;;;;15.70;3.88;;;16.50;99.90;;;;;;5031431;28;20517;-76
2022/09/09 06:48:45;;;;;;;11.48;3.42;;;16.50;99.90;;;;;;5031414;28;20018;-76
2022/09/09 06:51:17;;;;;;;14.73;4.20;;;16.50;99.90;;;;;;5031039;28;20381;-76
2022/09/09 06:53:44;;;;;;;19.63;4.78;;;16.50;99.90;;;;;;5035821;28;20025;-76
2022/09/09 06:56:09;;;;;;;22.92;4.60;;;16.50;99.90;;;;;;5032342;28;20025;-76
2022/09/09 06:58:42;;;;;;;13.52;4.60;;;16.50;99.90;;;;;;5036934;28;20021;-76
2022/09/09 07:01:08;;;;;;;15.20;4.88;;;16.60;99.90;;;;;;5032233;28;20029;-77
2022/09/09 07:03:34;;;;;;;15.15;4.45;;;16.60;99.90;;;;;;5032107;28;20022;-77
2022/09/09 07:06:00;;;;;;;9.43;3.95;;;16.60;99.90;;;;;;5029133;28;20033;-76
2022/09/09 07:08:26;;;;;;;15.05;4.38;;;16.60;99.90;;;;;;5038009;28;20021;-76
2022/09/09 07:10:57;;;;;;;13.50;4.45;;;16.70;99.90;;;;;;5036735;28;20037;-75
2022/09/09 07:13:27;;;;;;;12.13;4.60;;;16.70;99.90;;;;;;5030487;28;20029;-74
2022/09/09 07:15:52;;;;;;;13.52;4.47;;;16.70;99.90;;;;;;5031724;28;20025;-74
2022/09/09 07:18:19;;;;;;;11.05;4.63;;;16.70;99.90;;;;;;5040304;28;20392;-74
2022/09/09 07:20:55;;;;;;;12.70;4.30;;;16.70;99.90;;;;;;5033121;28;20033;-74
2022/09/09 07:23:20;;;;;;;13.23;4.20;;;16.70;99.90;;;;;;5031508;28;20017;-74
2022/09/09 07:25:47;;;;;;;16.88;4.90;;;16.80;99.90;;;;;;5039732;28;20498;-74
2022/09/09 07:28:13;;;;;;;13.65;4.47;;;16.80;99.90;;;;;;5047058;28;20539;-73
2022/09/09 07:30:39;;;;;;;16.77;4.65;;;16.80;99.90;;;;;;5036748;28;20361;-74
2022/09/09 07:33:05;;;;;;;12.93;4.63;;;16.80;99.90;;;;;;5034763;28;20440;-74
2022/09/09 07:35:31;;;;;;;12.07;4.43;;;16.70;99.90;;;;;;5041430;28;20138;-74
2022/09/09 07:37:58;;;;;;;13.98;4.78;;;16.70;99.90;;;;;;5046114;28;20112;-74
2022/09/09 07:40:24;;;;;;;12.15;4.55;;;16.70;99.90;;;;;;5045252;28;20021;-74
2022/09/09 07:42:49;;;;;;;15.75;5.18;;;16.70;99.90;;;;;;5046466;28;20035;-74
2022/09/09 07:45:15;;;;;;;14.68;5.03;;;16.70;99.90;;;;;;5043812;28;20041;-74
2022/09/09 07:47:42;;;;;;;16.08;4.82;;;16.70;99.90;;;;;;5043566;28;20076;-74
2022/09/09 07:50:09;;;;;;;14.50;4.78;;;16.70;99.90;;;;;;5044191;28;20027;-74
2022/09/09 07:52:35;;;;;;;16.95;4.78;;;16.80;99.90;;;;;;5041891;28;20037;-74
2022/09/09 07:55:02;;;;;;;13.52;4.68;;;16.80;99.90;;;;;;5040300;28;20056;-74
2022/09/09 07:57:30;;;;;;;12.48;4.10;;;16.80;99.90;;;;;;5035790;28;20057;-73
2022/09/09 07:59:56;;;;;;;15.13;4.07;;;16.80;99.90;;;;;;5030693;28;20433;-74
2022/09/09 08:02:23;;;;;;;14.40;4.25;;;16.90;99.90;;;;;;5030302;28;20105;-74
2022/09/09 08:04:48;;;;;;;13.65;4.32;;;16.90;99.90;;;;;;5030581;28;20021;-74
2022/09/09 08:07:15;;;;;;;16.42;3.95;;;16.90;99.90;;;;;;5030473;28;20052;-74
2022/09/09 08:09:41;;;;;;;14.10;3.65;;;16.90;99.90;;;;;;5034570;28;20198;-74
2022/09/09 08:12:08;;;;;;;12.23;3.38;;;16.90;99.90;;;;;;5050334;28;20043;-74
2022/09/09 08:14:33;;;;;;;11.23;3.70;;;17.00;99.90;;;;;;5048506;28;20052;-74
2022/09/09 08:16:59;;;;;;;13.65;4.15;;;17.00;99.90;;;;;;5028284;28;20065;-76
2022/09/09 08:19:25;;;;;;;15.13;3.72;;;17.00;99.90;;;;;;5031634;28;20408;-76
2022/09/09 08:21:51;;;;;;;11.05;3.80;;;17.00;99.90;;;;;;5031742;28;20072;-76
2022/09/09 08:24:19;;;;;;;12.15;3.97;;;17.00;99.90;;;;;;5031721;28;20021;-76
2022/09/09 08:26:49;;;;;;;14.48;4.15;;;17.10;99.90;;;;;;5030807;28;20021;-76
2022/09/09 08:29:16;;;;;;;13.23;3.65;;;17.10;99.90;;;;;;5030110;28;20120;-76
2022/09/09 08:31:57;;;;;;;11.98;3.72;;;17.10;99.90;;;;;;5029935;28;20034;-76
2022/09/09 08:34:24;;;;;;;13.15;3.58;;;17.10;99.90;;;;;;5030509;28;20029;-76
2022/09/09 08:36:50;;;;;;;11.00;3.10;;;17.10;99.90;;;;;;5030216;28;20048;-76
2022/09/09 08:39:18;;;;;;;14.70;3.88;;;17.10;99.90;;;;;;5030467;28;20501;-76
2022/09/09 08:42:02;;;;;;;18.60;3.80;;;17.10;99.90;;;;;;5029726;28;20466;-76
2022/09/09 08:45:05;;;;;;;11.20;3.50;;;17.10;99.90;;;;;;5030258;28;20041;-76
2022/09/09 08:47:45;;;;;;;13.75;3.83;;;17.20;99.90;;;;;;5029853;28;20121;-75
2022/09/09 08:50:24;;;;;;;10.18;3.50;;;17.20;99.90;;;;;;5028150;28;20025;-76
2022/09/09 08:53:08;;;;;;;11.55;3.75;;;17.20;99.90;;;;;;5030078;28;20037;-76
2022/09/09 08:56:00;;;;;;;12.05;3.90;;;17.20;99.90;;;;;;5028201;28;20116;-75
2022/09/09 08:58:31;;;;;;;13.73;4.07;;;17.30;99.90;;;;;;5029894;28;20482;-74
2022/09/09 09:01:10;;;;;;;14.20;4.07;;;17.20;99.90;;;;;;5016097;28;20026;-75
2022/09/09 09:04:00;;;;;;;14.85;4.32;;;17.30;99.90;;;;;;5030131;28;20026;-75
2022/09/09 09:06:36;;;;;;;13.32;4.25;;;17.20;99.90;;;;;;5030141;28;20026;-75
2022/09/09 09:09:07;;;;;;;12.20;4.43;;;17.20;99.90;;;;;;5042091;28;20489;-74
2022/09/09 09:11:43;;;;;;;13.07;4.15;;;17.20;99.90;;;;;;5050004;28;20393;-74
2022/09/09 09:14:17;;;;;;;13.57;3.78;;;17.10;99.90;;;;;;5049997;28;20253;-74
2022/09/09 09:17:06;;;;;;;11.85;3.55;;;17.10;99.90;;;;;;5048512;28;20021;-74
2022/09/09 09:19:35;;;;;;;13.50;3.50;;;17.10;99.90;;;;;;5044844;28;20071;-74
2022/09/09 09:22:19;;;;;;;13.52;3.97;;;17.10;99.90;;;;;;5040210;28;20021;-74
2022/09/09 09:24:52;;;;;;;14.95;4.07;;;17.10;99.90;;;;;;5040782;28;20056;-74
2022/09/09 09:27:44;;;;;;;12.05;3.72;;;17.10;99.90;;;;;;5045540;28;20020;-74
2022/09/09 09:30:21;;;;;;;13.82;4.32;;;17.10;99.90;;;;;;5038259;28;20496;-73
2022/09/09 09:32:58;;;;;;;17.50;4.00;;;17.10;99.90;;;;;;5048019;28;20033;-74
2022/09/09 09:35:23;;;;;;;12.10;3.55;;;17.20;99.90;;;;;;5043102;28;20017;-74
2022/09/09 09:37:50;;;;;;;14.23;4.22;;;17.30;99.90;;;;;;5046331;28;20052;-74
2022/09/09 09:40:19;;;;;;;14.23;4.03;;;17.40;99.90;;;;;;5044720;28;20017;-74
2022/09/09 09:43:00;;;;;;;18.50;4.10;;;17.50;99.90;;;;;;5039298;28;20021;-75
2022/09/09 09:45:34;;;;;;;12.25;4.13;;;17.60;99.90;;;;;;5027794;28;20022;-75
2022/09/09 09:48:09;;;;;;;12.68;3.85;;;17.60;99.90;;;;;;5029620;28;20028;-75
2022/09/09 09:50:35;;;;;;;11.68;3.63;;;17.70;99.90;;;;;;5041700;28;20026;-75
2022/09/09 09:53:04;;;;;;;11.45;4.00;;;17.70;99.90;;;;;;5033946;28;20036;-75
2022/09/09 09:55:32;;;;;;;12.90;4.10;;;17.80;99.90;;;;;;5042974;28;20413;-74
2022/09/09 09:58:06;;;;;;;10.65;3.50;;;17.80;99.90;;;;;;5027965;28;20033;-75
2022/09/09 10:00:34;;;;;;;13.85;4.13;;;17.80;99.90;;;;;;5027720;28;20055;-75
2022/09/09 10:03:00;;;;;;;14.20;4.28;;;17.80;99.90;;;;;;5037772;28;20017;-75
2022/09/09 10:05:31;;;;;;;13.07;4.68;;;17.90;99.90;;;;;;5029534;28;20381;-75
2022/09/09 10:08:10;;;;;;;13.20;4.13;;;17.80;99.90;;;;;;5029442;28;20426;-74
2022/09/09 10:11:16;;;;;;;14.98;4.40;;;17.80;99.90;;;;;;5039706;28;20388;-75
2022/09/09 10:14:04;;;;;;;11.65;4.10;;;17.70;99.90;;;;;;5031254;28;20056;-75
2022/09/09 10:17:07;;;;;;;12.68;4.40;;;17.70;99.90;;;;;;5052893;28;20021;-74
2022/09/09 10:19:35;;;;;;;13.32;4.63;;;17.60;99.90;;;;;;5052789;28;20032;-75
2022/09/09 10:22:19;;;;;;;13.52;4.60;;;17.60;99.90;;;;;;5052859;28;20392;-74
2022/09/09 10:24:53;;;;;;;12.80;4.53;;;17.60;99.90;;;;;;5039083;28;20025;-75
2022/09/09 10:27:28;;;;;;;10.15;4.68;;;17.60;99.90;;;;;;5053088;28;20054;-75
2022/09/09 10:30:13;;;;;;;14.32;4.43;;;17.60;99.90;;;;;;5052771;28;20420;-74
2022/09/09 10:32:55;;;;;;;15.13;4.35;;;17.60;99.90;;;;;;5052834;28;20083;-75
2022/09/09 10:35:39;;;;;;;12.82;4.00;;;17.60;99.90;;;;;;5052616;28;20048;-74
2022/09/09 10:38:15;;;;;;;12.70;3.63;;;17.70;99.90;;;;;;5053165;28;20466;-75
2022/09/09 10:40:56;;;;;;;10.38;4.05;;;17.80;99.90;;;;;;5026856;28;20025;-75
2022/09/09 10:43:27;;;;;;;9.35;3.45;;;17.90;99.90;;;;;;5052919;28;20064;-74
2022/09/09 10:46:20;;;;;;;9.80;3.47;;;17.90;99.90;;;;;;5052251;28;20037;-74
2022/09/09 10:49:23;;;;;;;9.80;3.40;;;17.90;99.90;;;;;;5052313;28;20526;-74
2022/09/09 10:51:49;;;;;;;12.40;3.78;;;18.00;99.90;;;;;;5052221;28;20114;-74
2022/09/09 10:54:14;;;;;;;8.82;3.47;;;17.90;99.90;;;;;;5052381;28;20024;-75
2022/09/09 10:56:43;;;;;;;13.98;4.38;;;18.00;99.90;;;;;;5052312;28;20445;-75
2022/09/09 10:59:20;;;;;;;8.95;3.35;;;18.00;99.90;;;;;;5050621;28;20056;-75
2022/09/09 11:01:50;;;;;;;10.15;3.40;;;18.20;99.90;;;;;;5052368;28;20033;-74
2022/09/09 11:04:30;;;;;;;10.88;3.75;;;18.30;99.90;;;;;;5051961;28;20142;-74
2022/09/09 11:06:56;;;;;;;7.35;3.25;;;18.40;99.90;;;;;;5052201;28;20426;-74
2022/09/09 11:09:32;;;;;;;11.23;3.08;;;18.50;99.90;;;;;;5037807;28;20022;-74
2022/09/09 11:12:02;;;;;;;7.63;3.00;;;18.50;99.90;;;;;;5051885;28;20033;-74
2022/09/09 11:14:40;;;;;;;11.43;3.38;;;18.60;99.90;;;;;;5051839;28;20489;-74
2022/09/09 11:17:19;;;;;;;9.65;3.53;;;18.70;99.90;;;;;;5045784;28;20504;-74
2022/09/09 11:19:45;;;;;;;7.97;3.30;;;18.80;99.90;;;;;;5051156;28;20080;-73
2022/09/09 11:22:18;;;;;;;5.25;3.03;;;18.90;99.90;;;;;;5036990;28;20033;-74
2022/09/09 11:25:01;;;;;;;8.27;3.55;;;19.00;99.90;;;;;;5036884;28;20316;-74
2022/09/09 11:27:33;;;;;;;8.73;3.00;;;19.10;99.90;;;;;;5037388;28;20025;-74
2022/09/09 11:30:17;;;;;;;11.50;3.00;;;19.10;99.90;;;;;;5037379;28;20036;-74
2022/09/09 11:33:29;;;;;;;8.60;2.95;;;19.00;99.90;;;;;;5048598;28;20091;-74
2022/09/09 11:36:34;;;;;;;8.05;2.90;;;18.90;99.90;;;;;;5045045;28;20393;-74
2022/09/09 11:39:22;;;;;;;9.55;2.63;;;18.80;99.90;;;;;;5026308;28;20033;-75
2022/09/09 11:41:48;;;;;;;12.15;2.92;;;18.70;99.90;;;;;;5051491;28;20027;-74
2022/09/09 11:44:24;;;;;;;7.57;2.85;;;18.60;99.90;;;;;;5050135;28;20025;-74
2022/09/09 11:46:52;;;;;;;8.10;3.25;;;18.50;99.90;;;;;;5052063;28;20079;-75
2022/09/09 11:49:45;;;;;;;12.27;2.63;;;18.50;99.90;;;;;;5051328;28;20017;-74
2022/09/09 11:52:25;;;;;;;8.55;3.08;;;18.40;99.90;;;;;;5033874;28;20026;-76
2022/09/09 11:54:51;;;;;;;11.60;3.45;;;18.40;99.90;;;;;;5043202;28;20029;-76
2022/09/09 11:57:32;;;;;;;8.25;3.42;;;18.40;99.90;;;;;;5051367;28;20028;-75
2022/09/09 11:59:58;;;;;;;10.65;3.53;;;18.40;99.90;;;;;;5051432;28;20308;-75
2022/09/09 12:02:27;;;;;;;9.70;3.53;;;18.30;99.90;;;;;;5047564;28;20466;-75
2022/09/09 12:05:02;;;;;;;10.18;3.45;;;18.30;99.90;;;;;;5041659;28;20013;-75
2022/09/09 12:07:50;;;;;;;8.18;3.70;;;18.30;99.90;;;;;;5051284;28;20461;-75
2022/09/09 12:10:33;;;;;;;8.32;3.80;;;18.30;99.90;;;;;;5028409;28;20075;-75
2022/09/09 12:13:16;;;;;;;9.50;4.05;;;18.40;99.90;;;;;;5050886;28;20493;-75
2022/09/09 12:15:51;;;;;;;11.32;4.05;;;18.30;99.90;;;;;;5050869;28;20028;-74
2022/09/09 12:18:33;;;;;;;8.50;4.20;;;18.30;99.90;;;;;;5050839;28;20048;-74
2022/09/09 12:21:30;;;;;;;6.25;3.55;;;18.30;99.90;;;;;;5050709;28;20269;-74
2022/09/09 12:24:02;;;;;;;6.80;3.40;;;18.40;99.90;;;;;;5029490;28;20021;-74
2022/09/09 12:26:48;;;;;;;7.47;3.15;;;18.40;99.90;;;;;;5050617;28;20025;-74
2022/09/09 12:29:41;;;;;;;5.97;2.55;;;18.40;99.90;;;;;;5051023;28;20029;-75
2022/09/09 12:32:18;;;;;;;9.05;3.08;;;18.30;99.90;;;;;;5023852;28;20428;-74
2022/09/09 12:34:52;;;;;;;7.30;3.05;;;18.30;99.90;;;;;;5049957;28;20071;-74
2022/09/09 12:37:38;;;;;;;8.02;3.38;;;18.40;99.90;;;;;;5050372;28;20071;-74
2022/09/09 12:40:18;;;;;;;8.90;3.40;;;18.30;99.90;;;;;;5050730;28;20031;-74
2022/09/09 12:42:44;;;;;;;8.32;3.20;;;18.40;99.90;;;;;;5035141;28;20474;-75
2022/09/09 12:45:28;;;;;;;7.82;3.42;;;18.30;99.90;;;;;;5045972;28;20052;-75
2022/09/09 12:47:58;;;;;;;11.27;3.45;;;18.30;99.90;;;;;;5031420;28;20057;-75
2022/09/09 12:50:26;;;;;;;6.80;3.47;;;18.20;99.90;;;;;;5045598;28;20017;-75
2022/09/09 12:52:58;;;;;;;8.52;3.33;;;18.30;99.90;;;;;;5042232;28;20025;-75
2022/09/09 12:55:38;;;;;;;7.00;3.35;;;18.20;99.90;;;;;;5044376;28;20381;-75
2022/09/09 12:58:06;;;;;;;9.98;3.70;;;18.20;99.90;;;;;;5044096;28;20396;-75
2022/09/09 13:00:35;;;;;;;7.72;3.58;;;18.20;99.90;;;;;;5046130;28;20047;-74
2022/09/09 13:03:16;;;;;;;7.60;3.35;;;18.20;99.90;;;;;;5045759;28;20477;-75
2022/09/09 13:05:42;;;;;;;9.27;3.50;;;18.20;99.90;;;;;;5046434;28;20041;-75
2022/09/09 13:08:12;;;;;;;7.38;3.40;;;18.20;99.90;;;;;;5046251;28;20036;-76